Time;durP1;ratioP1;P1;durP2;ratioP2;P2;SDS_P1;SDS_P2;PMS_P1;PMS_P2;Temp;Humidity;BMP_temperature;BMP_pressure;BME280_temperature;BME280_humidity;BME280_pressure;Samples;Min_cycle;Max_cycle;Signal;HPM_P1;HPM_P2
2022/07/23 00:00:29;;;;;;;1999.90;999.90;;;;;;;24.51;100.00;95270.09;5034452;28;20194;-60
2022/07/23 00:02:55;;;;;;;1999.90;999.90;;;;;;;24.54;100.00;95271.13;5034454;28;20193;-61
2022/07/23 00:05:20;;;;;;;1999.90;999.90;;;;;;;24.57;100.00;95270.16;5033675;28;20221;-62
2022/07/23 00:07:46;;;;;;;1999.90;999.90;;;;;;;24.58;100.00;95280.06;5034093;28;20178;-66
2022/07/23 00:10:11;;;;;;;1999.90;999.90;;;;;;;24.57;100.00;95272.94;5034306;28;20205;-67
2022/07/23 00:12:37;;;;;;;1999.90;999.90;;;;;;;24.55;100.00;95267.09;5034314;28;20194;-72
2022/07/23 00:15:04;;;;;;;1999.90;999.90;;;;;;;24.49;100.00;95260.69;5034220;28;20214;-66
2022/07/23 00:17:30;;;;;;;1999.90;999.90;;;;;;;24.47;100.00;95255.59;5034068;28;20214;-76
2022/07/23 00:19:55;;;;;;;1999.90;999.90;;;;;;;24.42;100.00;95261.16;5033623;28;20190;-77
2022/07/23 00:22:21;;;;;;;1999.90;999.90;;;;;;;24.39;100.00;95262.13;5033834;28;20179;-70
2022/07/23 00:24:46;;;;;;;1999.90;999.90;;;;;;;24.38;100.00;95260.63;5034014;28;20209;-64
2022/07/23 00:27:11;;;;;;;1999.90;999.90;;;;;;;24.36;100.00;95271.53;5034282;28;20178;-61
2022/07/23 00:29:37;;;;;;;1999.90;999.90;;;;;;;24.31;100.00;95272.22;5033579;28;20378;-63
2022/07/23 00:32:02;;;;;;;1999.90;999.90;;;;;;;24.33;100.00;95276.06;5033616;28;20183;-63
2022/07/23 00:34:28;;;;;;;1999.90;999.90;;;;;;;24.34;100.00;95288.00;5033358;28;20264;-61
2022/07/23 00:36:53;;;;;;;1999.90;999.90;;;;;;;24.35;100.00;95278.34;5033158;28;20217;-63
2022/07/23 00:39:21;;;;;;;1999.90;999.90;;;;;;;24.35;100.00;95283.94;5033640;28;20202;-62
2022/07/23 00:41:46;;;;;;;1999.90;999.90;;;;;;;24.31;100.00;95267.44;5033719;28;20190;-62
2022/07/23 00:44:24;;;;;;;1999.90;999.90;;;;;;;24.31;100.00;95295.34;5034026;28;20196;-65
2022/07/23 00:46:57;;;;;;;1999.90;999.90;;;;;;;24.31;100.00;95291.78;5033390;28;20194;-68
2022/07/23 00:49:25;;;;;;;1999.90;999.90;;;;;;;24.31;100.00;95308.53;5033187;28;20183;-62
2022/07/23 00:51:51;;;;;;;1999.90;999.90;;;;;;;24.28;100.00;95317.91;5033114;28;20194;-62
2022/07/23 00:54:18;;;;;;;1999.90;999.90;;;;;;;24.32;100.00;95313.63;5033197;28;20186;-67
2022/07/23 00:56:44;;;;;;;1999.90;999.90;;;;;;;24.26;100.00;95315.59;5033037;28;20229;-65
2022/07/23 00:59:10;;;;;;;1999.90;999.90;;;;;;;24.27;100.00;95316.38;5033171;28;20191;-63
2022/07/23 01:01:36;;;;;;;1999.90;999.90;;;;;;;24.27;100.00;95317.16;5032777;28;20190;-65
2022/07/23 01:04:02;;;;;;;1999.90;999.90;;;;;;;24.27;100.00;95316.38;5033071;28;20223;-61
2022/07/23 01:06:27;;;;;;;1999.90;999.90;;;;;;;24.25;100.00;95332.84;5032821;28;20191;-59
2022/07/23 01:08:56;;;;;;;1999.90;999.90;;;;;;;24.28;100.00;95345.81;5033061;28;20234;-59
2022/07/23 01:11:23;;;;;;;1999.90;999.90;;;;;;;24.26;100.00;95348.34;5032895;28;20197;-60
2022/07/23 01:13:48;;;;;;;1999.90;999.90;;;;;;;24.25;100.00;95374.72;5032984;28;20674;-59
2022/07/23 01:16:14;;;;;;;1999.90;999.90;;;;;;;24.30;100.00;95396.34;5032785;28;20210;-58
2022/07/23 01:18:39;;;;;;;1999.90;999.90;;;;;;;24.29;100.00;95420.72;5033933;28;20186;-59
2022/07/23 01:21:05;;;;;;;1999.90;999.90;;;;;;;24.30;100.00;95438.25;5032822;28;20182;-60
2022/07/23 01:23:30;;;;;;;1999.90;999.90;;;;;;;24.35;100.00;95449.47;5032799;28;20194;-58
2022/07/23 01:25:56;;;;;;;1999.90;999.90;;;;;;;24.46;100.00;95459.97;5032777;28;20190;-58
2022/07/23 01:28:21;;;;;;;1999.90;999.90;;;;;;;24.35;100.00;95440.31;5032458;28;20201;-61
2022/07/23 01:30:48;;;;;;;1999.90;999.90;;;;;;;24.22;100.00;95487.41;5032701;28;20229;-58
2022/07/23 01:33:14;;;;;;;1999.90;999.90;;;;;;;24.03;100.00;95503.66;5032942;28;20284;-57
2022/07/23 01:35:39;;;;;;;1999.90;999.90;;;;;;;23.56;100.00;95506.00;5032541;28;20246;-59
2022/07/23 01:38:05;;;;;;;1999.90;999.90;;;;;;;23.00;100.00;95481.25;5032570;28;20194;-67
2022/07/23 01:40:30;;;;;;;1999.90;999.90;;;;;;;22.94;100.00;95458.13;5032572;28;20551;-62
2022/07/23 01:42:55;;;;;;;1999.90;999.90;;;;;;;22.93;100.00;95457.34;5032473;28;20190;-66
2022/07/23 01:45:21;;;;;;;1999.90;999.90;;;;;;;22.86;100.00;95465.31;5032475;28;20190;-65
2022/07/23 01:47:47;;;;;;;1999.90;999.90;;;;;;;22.82;100.00;95468.31;5032452;28;20196;-64
2022/07/23 01:50:12;;;;;;;1999.90;999.90;;;;;;;22.74;100.00;95471.97;5034518;28;20193;-66
2022/07/23 01:52:37;;;;;;;1999.90;999.90;;;;;;;22.71;100.00;95456.19;5036648;28;20253;-64
2022/07/23 01:55:03;;;;;;;1999.90;999.90;;;;;;;22.51;100.00;95447.75;5036117;28;20209;-63
2022/07/23 01:57:29;;;;;;;1999.90;999.90;;;;;;;22.54;100.00;95450.34;5035723;28;20186;-60
2022/07/23 01:59:54;;;;;;;1999.90;999.90;;;;;;;22.42;100.00;95429.88;5036751;28;20190;-63
2022/07/23 02:02:19;;;;;;;1999.90;999.90;;;;;;;22.38;100.00;95412.59;5035632;28;20206;-64
2022/07/23 02:04:45;;;;;;;1999.90;999.90;;;;;;;22.30;100.00;95388.41;5036378;28;20274;-66
2022/07/23 02:07:10;;;;;;;1999.90;999.90;;;;;;;22.25;100.00;95398.19;5035924;28;20713;-64
2022/07/23 02:09:35;;;;;;;1999.90;999.90;;;;;;;22.21;100.00;95397.59;5035617;28;20297;-64
2022/07/23 02:12:01;;;;;;;1999.90;999.90;;;;;;;22.18;100.00;95348.47;5035846;28;20217;-66
2022/07/23 02:14:27;;;;;;;1999.90;999.90;;;;;;;22.08;100.00;95333.09;5036123;28;20182;-61
2022/07/23 02:16:52;;;;;;;1999.90;999.90;;;;;;;21.83;100.00;95289.19;5036015;28;20217;-70
2022/07/23 02:19:18;;;;;;;1999.90;999.90;;;;;;;21.62;100.00;95240.25;5035779;28;20244;-63
2022/07/23 02:21:43;;;;;;;1999.90;999.90;;;;;;;21.43;100.00;95199.97;5035271;28;20254;-67
2022/07/23 02:24:09;;;;;;;1999.90;999.90;;;;;;;21.36;100.00;95178.13;5035522;28;20182;-63
2022/07/23 02:26:34;;;;;;;1999.90;999.90;;;;;;;21.32;100.00;95194.22;5035329;28;20236;-63
2022/07/23 02:29:01;;;;;;;1999.90;999.90;;;;;;;21.30;100.00;95207.81;5035439;28;20233;-64
2022/07/23 02:31:28;;;;;;;1999.90;999.90;;;;;;;21.30;100.00;95191.13;5035154;28;20183;-65
2022/07/23 02:33:53;;;;;;;1999.90;999.90;;;;;;;21.30;100.00;95155.00;5035288;28;20193;-70
2022/07/23 02:36:18;;;;;;;1999.90;999.90;;;;;;;21.14;100.00;95144.38;5035763;28;20278;-58
2022/07/23 02:38:44;;;;;;;1999.90;999.90;;;;;;;21.15;100.00;95143.13;5035792;28;20220;-59
2022/07/23 02:41:09;;;;;;;1999.90;999.90;;;;;;;21.14;100.00;95138.81;5035683;28;20201;-61
2022/07/23 02:43:35;;;;;;;1999.90;999.90;;;;;;;21.17;100.00;95110.09;5035758;28;20194;-58
2022/07/23 02:46:00;;;;;;;1999.90;999.90;;;;;;;21.10;100.00;95131.91;5035814;28;20191;-59
2022/07/23 02:48:26;;;;;;;1999.90;999.90;;;;;;;21.11;100.00;95089.00;5035159;28;20276;-59
2022/07/23 02:50:52;;;;;;;1999.90;999.90;;;;;;;21.12;100.00;95096.84;5035021;28;20190;-57
2022/07/23 02:53:17;;;;;;;1999.90;999.90;;;;;;;21.09;100.00;95097.81;5035535;28;20254;-63
2022/07/23 02:55:43;;;;;;;1999.90;999.90;;;;;;;20.94;100.00;95085.94;5035163;28;20345;-59
2022/07/23 02:58:08;;;;;;;1999.90;999.90;;;;;;;20.68;100.00;95118.22;5035071;28;20221;-59
2022/07/23 03:00:33;;;;;;;1999.90;999.90;;;;;;;20.49;100.00;95055.78;5034232;28;20190;-59
2022/07/23 03:02:59;;;;;;;1999.90;999.90;;;;;;;20.16;100.00;95035.72;5034527;28;20277;-63
2022/07/23 03:05:24;;;;;;;1999.90;999.90;;;;;;;20.19;100.00;95004.25;5035582;28;20248;-61
2022/07/23 03:07:50;;;;;;;1999.90;999.90;;;;;;;20.02;100.00;94938.59;5035232;28;20191;-60
2022/07/23 03:10:15;;;;;;;1999.90;999.90;;;;;;;19.86;100.00;94881.59;5034814;28;20214;-67
2022/07/23 03:12:40;;;;;;;1999.90;999.90;;;;;;;19.75;100.00;94803.78;5034921;28;20217;-62
2022/07/23 03:15:06;;;;;;;1999.90;999.90;;;;;;;19.76;100.00;94738.03;5034580;28;20286;-76
2022/07/23 03:17:32;;;;;;;1999.90;999.90;;;;;;;19.70;100.00;94673.47;5034817;28;20232;-69
2022/07/23 03:19:57;;;;;;;1999.90;999.90;;;;;;;19.68;100.00;94631.59;5034582;28;20186;-70
2022/07/23 03:22:22;;;;;;;1999.90;999.90;;;;;;;19.63;100.00;94588.69;5034674;28;20191;-71
2022/07/23 03:24:54;;;;;;;1999.90;999.90;;;;;;;19.58;100.00;94558.91;5034910;28;20228;-70
2022/07/23 03:27:27;;;;;;;1999.90;999.90;;;;;;;19.53;100.00;94531.91;5034602;28;20179;-66
2022/07/23 03:29:53;;;;;;;1999.90;999.90;;;;;;;19.51;100.00;94501.13;5034186;28;20194;-61
2022/07/23 03:32:19;;;;;;;1999.90;999.90;;;;;;;19.48;100.00;94479.94;5034569;28;20281;-67
2022/07/23 03:34:45;;;;;;;1999.90;999.90;;;;;;;19.39;100.00;94463.47;5035076;28;20229;-70
2022/07/23 03:37:11;;;;;;;1999.90;999.90;;;;;;;19.32;100.00;94434.19;5034313;28;20313;-68
2022/07/23 03:39:36;;;;;;;1999.90;999.90;;;;;;;19.29;100.00;94431.59;5034338;28;20250;-67
2022/07/23 03:42:01;;;;;;;1999.90;999.90;;;;;;;19.17;100.00;94432.66;5034428;28;20190;-79
2022/07/23 03:44:27;;;;;;;1999.90;999.90;;;;;;;19.14;100.00;94422.56;5035608;28;20190;-68
2022/07/23 03:46:52;;;;;;;1999.90;999.90;;;;;;;19.13;100.00;94376.75;5034266;28;20236;-72
2022/07/23 03:49:20;;;;;;;1999.90;999.90;;;;;;;19.07;100.00;94339.91;5034440;28;20198;-68
2022/07/23 03:51:46;;;;;;;1999.90;999.90;;;;;;;19.04;100.00;94335.34;5034011;28;20190;-60
2022/07/23 03:54:11;;;;;;;1999.90;999.90;;;;;;;19.07;100.00;94378.66;5034382;28;20191;-61
2022/07/23 03:56:37;;;;;;;1999.90;999.90;;;;;;;19.19;100.00;94435.69;5034414;28;20210;-61
2022/07/23 03:59:02;;;;;;;1999.90;999.90;;;;;;;19.33;100.00;94499.38;5033859;28;20198;-61
2022/07/23 04:01:28;;;;;;;1999.90;999.90;;;;;;;19.50;100.00;94483.00;5034712;28;20249;-61
2022/07/23 04:03:53;;;;;;;1999.90;999.90;;;;;;;19.54;100.00;94455.84;5034101;28;20248;-63
2022/07/23 04:06:18;;;;;;;1999.90;999.90;;;;;;;19.60;100.00;94404.06;5034233;28;20183;-61
2022/07/23 04:08:44;;;;;;;1999.90;999.90;;;;;;;19.63;100.00;94380.16;5034303;28;20295;-70
2022/07/23 04:11:09;;;;;;;1999.90;999.90;;;;;;;19.59;100.00;94379.63;5033857;28;20194;-73
2022/07/23 04:13:34;;;;;;;1999.90;999.90;;;;;;;19.64;100.00;94382.44;5033320;28;20202;-70
2022/07/23 04:16:00;;;;;;;1999.90;999.90;;;;;;;19.71;100.00;94382.03;5034454;28;20202;-69
2022/07/23 04:18:25;;;;;;;1999.90;999.90;;;;;;;19.79;100.00;94376.81;5034253;28;20284;-68
2022/07/23 04:20:51;;;;;;;1999.90;999.90;;;;;;;19.82;100.00;94368.31;5034074;28;20190;-67
2022/07/23 04:23:17;;;;;;;1999.90;999.90;;;;;;;19.83;100.00;94378.13;5033691;28;20189;-71
2022/07/23 04:25:42;;;;;;;1999.90;999.90;;;;;;;19.86;100.00;94379.94;5033789;28;20241;-72
2022/07/23 04:28:08;;;;;;;1999.90;999.90;;;;;;;19.92;100.00;94364.09;5033785;28;20186;-67
2022/07/23 04:30:33;;;;;;;1999.90;999.90;;;;;;;19.91;100.00;94370.91;5033606;28;20190;-65
2022/07/23 04:32:59;;;;;;;1999.90;999.90;;;;;;;19.97;100.00;94360.66;5034157;28;20187;-66
2022/07/23 04:35:24;;;;;;;1999.90;999.90;;;;;;;19.98;100.00;94350.31;5033584;28;20210;-65
2022/07/23 04:37:50;;;;;;;1999.90;999.90;;;;;;;20.00;100.00;94337.50;5033737;28;20182;-64
2022/07/23 04:40:15;;;;;;;1999.90;999.90;;;;;;;20.00;100.00;94320.88;5033652;28;20198;-63
2022/07/23 04:42:40;;;;;;;1999.90;999.90;;;;;;;19.96;100.00;94336.94;5034333;28;20197;-59
2022/07/23 04:45:06;;;;;;;1999.90;999.90;;;;;;;19.93;100.00;94371.19;5033415;28;20233;-60
2022/07/23 04:47:32;;;;;;;1999.90;999.90;;;;;;;19.94;100.00;94392.09;5033174;28;20179;-59
2022/07/23 04:49:57;;;;;;;1999.90;999.90;;;;;;;19.98;100.00;94400.19;5033691;28;20277;-60
2022/07/23 04:52:23;;;;;;;1999.90;999.90;;;;;;;19.99;100.00;94408.03;5033273;28;20340;-60
2022/07/23 04:54:49;;;;;;;1999.90;999.90;;;;;;;20.00;100.00;94442.84;5033632;28;20198;-59
2022/07/23 04:57:14;;;;;;;1999.90;999.90;;;;;;;19.96;100.00;94483.84;5033710;28;20193;-59
2022/07/23 04:59:40;;;;;;;1999.90;999.90;;;;;;;19.98;100.00;94520.16;5033641;28;20220;-61
2022/07/23 05:02:05;;;;;;;1999.90;999.90;;;;;;;20.02;100.00;94511.63;5033315;28;20190;-66
2022/07/23 05:04:31;;;;;;;1999.90;999.90;;;;;;;19.96;100.00;94508.78;5032933;28;20236;-71
2022/07/23 05:06:57;;;;;;;1999.90;999.90;;;;;;;19.92;100.00;94519.31;5033435;28;20194;-71
2022/07/23 05:09:23;;;;;;;1999.90;999.90;;;;;;;20.04;100.00;94504.38;5032789;28;20297;-68
2022/07/23 05:11:48;;;;;;;1999.90;999.90;;;;;;;20.21;100.00;94510.88;5033063;28;20228;-68
2022/07/23 05:14:14;;;;;;;1999.90;999.90;;;;;;;20.36;100.00;94533.00;5033080;28;20190;-71
2022/07/23 05:16:40;;;;;;;1999.90;999.90;;;;;;;20.49;100.00;94566.69;5033075;28;20206;-74
2022/07/23 05:19:05;;;;;;;1999.90;999.90;;;;;;;20.58;100.00;94625.56;5032985;28;20183;-57
2022/07/23 05:21:31;;;;;;;1999.90;999.90;;;;;;;20.67;100.00;94664.28;5033695;28;20194;-63
2022/07/23 05:23:56;;;;;;;1999.90;999.90;;;;;;;20.70;100.00;94693.09;5032244;28;20246;-72
2022/07/23 05:26:21;;;;;;;1999.90;999.90;;;;;;;20.64;100.00;94745.75;5033199;28;20190;-67
2022/07/23 05:28:47;;;;;;;1999.90;999.90;;;;;;;20.61;100.00;94735.59;5033176;28;20178;-72
2022/07/23 05:31:12;;;;;;;1999.90;999.90;;;;;;;20.73;100.00;94728.97;5032890;28;20190;-70
2022/07/23 05:33:38;;;;;;;1999.90;999.90;;;;;;;20.74;100.00;94719.38;5032465;28;20209;-70
2022/07/23 05:36:04;;;;;;;1999.90;999.90;;;;;;;20.81;100.00;94743.19;5033224;28;20230;-76
2022/07/23 05:38:30;;;;;;;1999.90;999.90;;;;;;;20.85;100.00;94733.41;5033308;28;20183;-60
2022/07/23 05:40:55;;;;;;;1999.90;999.90;;;;;;;20.87;100.00;94769.75;5033482;28;20179;-59
2022/07/23 05:43:21;;;;;;;1999.90;999.90;;;;;;;20.93;100.00;94770.63;5032614;28;20182;-59
2022/07/23 05:45:46;;;;;;;1999.90;999.90;;;;;;;21.02;100.00;94769.75;5033280;28;20186;-59
2022/07/23 05:48:12;;;;;;;1999.90;999.90;;;;;;;21.05;100.00;94747.31;5032623;28;20217;-59
2022/07/23 05:50:38;;;;;;;1999.90;999.90;;;;;;;21.03;100.00;94735.94;5032529;28;20183;-60
2022/07/23 05:53:03;;;;;;;1999.90;999.90;;;;;;;21.04;100.00;94743.00;5032324;28;20198;-60
2022/07/23 05:55:31;;;;;;;1999.90;999.90;;;;;;;21.09;100.00;94769.34;5032410;28;20213;-69
2022/07/23 05:57:57;;;;;;;1999.90;999.90;;;;;;;21.19;100.00;94793.69;5032342;28;20182;-61
2022/07/23 06:00:23;;;;;;;1999.90;999.90;;;;;;;21.29;100.00;94792.31;5032390;28;20187;-65
2022/07/23 06:02:48;;;;;;;1999.90;999.90;;;;;;;21.32;100.00;94805.22;5032248;28;20195;-64
2022/07/23 06:05:14;;;;;;;1999.90;999.90;;;;;;;21.31;100.00;94828.69;5031968;28;20190;-66
2022/07/23 06:07:39;;;;;;;1999.90;999.90;;;;;;;21.36;100.00;94844.69;5031976;28;20194;-66
2022/07/23 06:10:05;;;;;;;1999.90;999.90;;;;;;;21.37;100.00;94857.31;5032320;28;20344;-67
2022/07/23 06:12:31;;;;;;;1999.90;999.90;;;;;;;21.33;100.00;94870.66;5032085;28;20193;-64
2022/07/23 06:14:56;;;;;;;1999.90;999.90;;;;;;;21.17;100.00;94860.09;5032084;28;20194;-65
2022/07/23 06:17:22;;;;;;;1999.90;999.90;;;;;;;20.98;100.00;94819.19;5031940;28;20205;-60
2022/07/23 06:19:47;;;;;;;1999.90;999.90;;;;;;;20.71;100.00;94800.84;5032697;28;20202;-62
2022/07/23 06:22:12;;;;;;;1999.90;999.90;;;;;;;20.43;100.00;94724.75;5031701;28;20187;-62
2022/07/23 06:24:38;;;;;;;1999.90;999.90;;;;;;;20.30;100.00;94699.38;5032242;28;20213;-62
2022/07/23 06:27:04;;;;;;;1999.90;999.90;;;;;;;20.20;100.00;94644.47;5032082;28;20182;-61
2022/07/23 06:29:30;;;;;;;1999.90;999.90;;;;;;;20.12;100.00;94588.69;5031986;28;20190;-62
2022/07/23 06:31:55;;;;;;;1999.90;999.90;;;;;;;20.07;100.00;94541.44;5032112;28;20208;-61
2022/07/23 06:34:21;;;;;;;1999.90;999.90;;;;;;;20.07;100.00;94536.66;5032004;28;20182;-59
2022/07/23 06:36:46;;;;;;;1999.90;999.90;;;;;;;20.07;100.00;94564.38;5035132;28;20202;-61
2022/07/23 06:39:11;;;;;;;1999.90;999.90;;;;;;;20.14;100.00;94558.44;5035458;28;20186;-61
2022/07/23 06:41:37;;;;;;;1999.90;999.90;;;;;;;20.26;100.00;94532.41;5035786;28;20236;-62
2022/07/23 06:44:02;;;;;;;1999.90;999.90;;;;;;;20.30;100.00;94521.84;5035623;28;20195;-61
2022/07/23 06:46:28;;;;;;;1999.90;999.90;;;;;;;20.45;100.00;94532.84;5035071;28;20186;-61
2022/07/23 06:48:53;;;;;;;1999.90;999.90;;;;;;;20.54;100.00;94563.97;5035289;28;20182;-62
2022/07/23 06:51:19;;;;;;;1999.90;999.90;;;;;;;20.69;100.00;94599.97;5035225;28;20190;-69
2022/07/23 06:53:44;;;;;;;1999.90;999.90;;;;;;;20.77;100.00;94643.47;5035802;28;20190;-76
2022/07/23 06:56:10;;;;;;;1999.90;999.90;;;;;;;20.97;100.00;94674.00;5034882;28;20221;-70
2022/07/23 06:58:35;;;;;;;1999.90;999.90;;;;;;;21.18;100.00;94694.94;5035311;28;20187;-69
2022/07/23 07:01:00;;;;;;;1999.90;999.90;;;;;;;21.34;100.00;94730.47;5035251;28;20213;-75
2022/07/23 07:03:26;;;;;;;1999.90;999.90;;;;;;;21.48;100.00;94751.84;5034965;28;20187;-70
2022/07/23 07:05:52;;;;;;;1999.90;999.90;;;;;;;21.67;100.00;94775.28;5034890;28;20186;-68
2022/07/23 07:08:18;;;;;;;1999.90;999.90;;;;;;;21.90;100.00;94782.66;5035142;28;20214;-71
2022/07/23 07:10:43;;;;;;;1999.90;999.90;;;;;;;22.14;100.00;94794.22;5034746;28;20222;-60
2022/07/23 07:13:09;;;;;;;1999.90;999.90;;;;;;;22.28;100.00;94840.66;5035361;28;20190;-63
2022/07/23 07:15:34;;;;;;;1999.90;999.90;;;;;;;22.62;100.00;94868.78;5034640;28;20206;-63
2022/07/23 07:17:59;;;;;;;1999.90;999.90;;;;;;;22.98;100.00;94923.78;5034664;28;20187;-61
2022/07/23 07:20:25;;;;;;;1999.90;999.90;;;;;;;22.99;100.00;94947.59;5034510;28;20197;-61
2022/07/23 07:22:50;;;;;;;1999.90;999.90;;;;;;;23.21;100.00;94962.47;5034550;28;20194;-61
2022/07/23 07:25:16;;;;;;;1999.90;999.90;;;;;;;23.29;100.00;94987.88;5034605;28;20202;-61
2022/07/23 07:27:43;;;;;;;1999.90;999.90;;;;;;;23.59;100.00;94958.41;5034516;28;20239;-66
2022/07/23 07:30:10;;;;;;;1999.90;999.90;;;;;;;23.70;100.00;94989.16;5034343;28;20274;-72
2022/07/23 07:32:36;;;;;;;1999.90;999.90;;;;;;;23.86;100.00;94996.88;5034570;28;20189;-72
2022/07/23 07:35:05;;;;;;;1999.90;999.90;;;;;;;23.91;100.00;95024.03;5034374;28;20191;-65
2022/07/23 07:37:31;;;;;;;1999.90;999.90;;;;;;;24.05;100.00;95060.19;5035229;28;20183;-73
2022/07/23 07:39:56;;;;;;;1999.90;999.90;;;;;;;24.03;100.00;95068.25;5034389;28;20198;-71
2022/07/23 07:42:22;;;;;;;1999.90;999.90;;;;;;;23.89;100.00;95062.84;5034383;28;20184;-63
2022/07/23 07:44:47;;;;;;;1999.90;999.90;;;;;;;23.72;100.00;95073.09;5034539;28;20285;-63
2022/07/23 07:47:15;;;;;;;1999.90;999.90;;;;;;;23.54;100.00;95070.69;5033647;28;20187;-63
2022/07/23 07:49:41;;;;;;;1999.90;999.90;;;;;;;23.39;100.00;95056.13;5034328;28;20194;-62
2022/07/23 07:52:06;;;;;;;1999.90;999.90;;;;;;;23.31;100.00;95052.25;5034194;28;20194;-62
2022/07/23 07:54:32;;;;;;;1999.90;999.90;;;;;;;23.18;100.00;95040.69;5033936;28;20224;-61
2022/07/23 07:56:57;;;;;;;1999.90;999.90;;;;;;;23.18;100.00;95049.06;5034255;28;20213;-61
2022/07/23 07:59:23;;;;;;;1999.90;999.90;;;;;;;23.28;100.00;95042.88;5034250;28;20225;-61
2022/07/23 08:01:48;;;;;;;1999.90;999.90;;;;;;;23.31;100.00;95041.09;5033919;28;20183;-62
2022/07/23 08:04:14;;;;;;;1999.90;999.90;;;;;;;23.31;100.00;95066.19;5033947;28;20202;-58
2022/07/23 08:06:39;;;;;;;1999.90;999.90;;;;;;;23.36;100.00;95065.47;5033942;28;20265;-60
2022/07/23 08:09:04;;;;;;;1999.90;999.90;;;;;;;23.39;100.00;95075.63;5034134;28;20268;-78
2022/07/23 08:11:30;;;;;;;1999.90;999.90;;;;;;;23.46;100.00;95062.03;5034552;28;20201;-74
2022/07/23 08:13:55;;;;;;;1999.90;999.90;;;;;;;23.46;100.00;95069.63;5033876;28;20182;-83
2022/07/23 08:16:20;;;;;;;1999.90;999.90;;;;;;;23.46;100.00;95080.75;5033816;28;20214;-63
2022/07/23 08:18:46;;;;;;;1999.90;999.90;;;;;;;23.58;100.00;95082.38;5033522;28;20221;-69
2022/07/23 08:21:11;;;;;;;1999.90;999.90;;;;;;;23.58;100.00;95121.41;5033439;28;20191;-82
2022/07/23 08:23:37;;;;;;;1999.90;999.90;;;;;;;23.68;100.00;95128.34;5033696;28;20195;-68
2022/07/23 08:26:02;;;;;;;1999.90;999.90;;;;;;;23.82;100.00;95136.56;5033648;28;20198;-61
2022/07/23 08:28:28;;;;;;;1999.90;999.90;;;;;;;23.97;100.00;95156.00;5033571;28;20182;-61
2022/07/23 08:30:53;;;;;;;1999.90;999.90;;;;;;;24.14;100.00;95179.19;5033994;28;20190;-61
2022/07/23 08:33:19;;;;;;;1999.90;999.90;;;;;;;24.07;100.00;95193.63;5033398;28;20174;-61
2022/07/23 08:35:47;;;;;;;1999.90;999.90;;;;;;;24.04;100.00;95186.25;5033684;28;20300;-60
2022/07/23 08:38:15;;;;;;;1999.90;999.90;;;;;;;24.10;100.00;95198.22;5033222;28;20186;-61
2022/07/23 08:40:44;;;;;;;1999.90;999.90;;;;;;;24.22;100.00;95202.63;5033153;28;20190;-62
2022/07/23 08:43:12;;;;;;;1999.90;999.90;;;;;;;24.32;100.00;95212.34;5033449;28;20278;-68
2022/07/23 08:45:40;;;;;;;1999.90;999.90;;;;;;;24.46;100.00;95212.19;5033750;28;20190;-62
2022/07/23 08:48:10;;;;;;;1999.90;999.90;;;;;;;24.75;100.00;95228.66;5033305;28;20287;-61
2022/07/23 08:50:37;;;;;;;1999.90;999.90;;;;;;;24.96;100.00;95244.00;5033217;28;20189;-60
2022/07/23 08:53:06;;;;;;;1999.90;999.90;;;;;;;25.19;100.00;95262.41;5033282;28;20240;-62
2022/07/23 08:55:31;;;;;;;1999.90;999.90;;;;;;;25.23;100.00;95273.34;5033014;28;20206;-61
2022/07/23 08:57:56;;;;;;;1999.90;999.90;;;;;;;25.28;100.00;95283.81;5033148;28;20188;-61
2022/07/23 09:00:22;;;;;;;1999.90;999.90;;;;;;;25.19;100.00;95279.19;5031729;28;20265;-64
2022/07/23 09:02:49;;;;;;;1999.90;999.90;;;;;;;25.13;100.00;95288.81;5033498;28;20190;-62
2022/07/23 09:05:15;;;;;;;1999.90;999.90;;;;;;;25.00;100.00;95283.69;5033125;28;20192;-63
2022/07/23 09:08:19;;;;;;;1999.90;999.90;;;;;;;24.81;100.00;95281.78;5033094;28;20182;-61
2022/07/23 09:10:53;;;;;;;1999.90;999.90;;;;;;;24.76;100.00;95286.06;5033210;28;20198;-62
2022/07/23 09:13:48;;;;;;;1999.90;999.90;;;;;;;24.75;100.00;95281.75;5032967;28;20186;-62
2022/07/23 09:16:15;;;;;;;1999.90;999.90;;;;;;;24.66;100.00;95289.56;5033108;28;20206;-61
2022/07/23 09:18:48;;;;;;;1999.90;999.90;;;;;;;24.71;100.00;95305.56;5032801;28;20250;-62
2022/07/23 09:21:28;;;;;;;1999.90;999.90;;;;;;;24.81;100.00;95301.34;5032782;28;20193;-61
2022/07/23 09:24:05;;;;;;;1999.90;999.90;;;;;;;25.05;100.00;95301.72;5033375;28;20186;-59
2022/07/23 09:26:37;;;;;;;1999.90;999.90;;;;;;;25.20;100.00;95307.91;5033156;28;20217;-58
2022/07/23 09:29:08;;;;;;;1999.90;999.90;;;;;;;25.31;100.00;95336.72;5032589;28;20202;-58
2022/07/23 09:31:51;;;;;;;1999.90;999.90;;;;;;;25.53;100.00;95341.66;5033307;28;20225;-59
2022/07/23 09:34:32;;;;;;;1999.90;999.90;;;;;;;26.40;100.00;95387.28;5032554;28;20273;-58
2022/07/23 09:37:13;;;;;;;1999.90;999.90;;;;;;;27.48;100.00;95443.94;5032447;28;20226;-70
2022/07/23 09:39:39;;;;;;;1999.90;999.90;;;;;;;29.82;100.00;95496.41;5033039;28;20186;-60
2022/07/23 09:42:17;;;;;;;1999.90;999.90;;;;;;;32.03;100.00;95539.34;5032041;28;20194;-59
2022/07/23 09:44:48;;;;;;;1999.90;999.90;;;;;;;32.99;90.59;95561.91;5032697;28;20201;-61
2022/07/23 09:47:14;;;;;;;1999.90;999.90;;;;;;;32.60;88.55;95559.13;5032389;28;20344;-58
2022/07/23 09:49:39;;;;;;;1999.90;999.90;;;;;;;32.76;87.52;95543.88;5032574;28;20186;-58
2022/07/23 09:52:05;;;;;;;1999.90;999.90;;;;;;;33.25;84.35;95550.53;5032398;28;20189;-60
2022/07/23 09:54:35;;;;;;;1999.90;999.90;;;;;;;33.93;75.88;95550.53;5032711;28;20187;-64
2022/07/23 09:57:14;;;;;;;1999.90;999.90;;;;;;;34.53;71.71;95551.00;5032531;28;20225;-61
2022/07/23 09:59:40;;;;;;;1999.90;999.90;;;;;;;35.31;66.52;95538.94;5033368;28;20179;-58
2022/07/23 10:02:08;;;;;;;1999.90;999.90;;;;;;;35.69;62.38;95536.97;5032092;28;20194;-59
2022/07/23 10:04:35;;;;;;;1999.90;999.90;;;;;;;34.70;66.58;95534.28;5032911;28;20198;-61
2022/07/23 10:07:04;;;;;;;1999.90;999.90;;;;;;;35.23;64.17;95532.44;5032479;28;20202;-58
2022/07/23 10:09:36;;;;;;;1999.90;999.90;;;;;;;35.69;61.54;95523.47;5031683;28;20217;-60
2022/07/23 10:14:49;;;;;;;1999.90;999.90;;;;;;;34.07;64.72;95527.19;5037292;28;20194;-58
2022/07/23 10:17:15;;;;;;;1999.90;999.90;;;;;;;34.11;63.90;95532.53;5035064;28;20248;-63
2022/07/23 10:19:41;;;;;;;1999.90;999.90;;;;;;;33.75;62.99;95518.19;5035908;28;20175;-61
2022/07/23 10:22:19;;;;;;;1999.90;999.90;;;;;;;33.18;64.84;95520.03;5035302;28;20219;-61
2022/07/23 10:25:04;;;;;;;1999.90;999.90;;;;;;;32.79;66.05;95520.13;5035984;28;20269;-62
2022/07/23 10:27:42;;;;;;;1999.90;999.90;;;;;;;32.91;64.33;95515.78;5035653;28;20189;-61
2022/07/23 10:30:12;;;;;;;1999.90;999.90;;;;;;;33.55;63.63;95499.91;5035446;28;20195;-62
2022/07/23 10:33:01;;;;;;;1999.90;999.90;;;;;;;33.55;63.49;95505.56;5035446;28;20216;-67
2022/07/23 10:35:36;;;;;;;1999.90;999.90;;;;;;;33.09;64.93;95497.09;5035694;28;20202;-69
2022/07/23 10:38:16;;;;;;;1999.90;999.90;;;;;;;33.39;64.83;95498.22;5035963;28;20196;-69
2022/07/23 10:41:00;;;;;;;1999.90;999.90;;;;;;;32.58;69.18;95502.31;5035076;28;20185;-66
2022/07/23 10:43:27;;;;;;;1999.90;999.90;;;;;;;32.29;69.43;95489.22;5035184;28;20190;-72
2022/07/23 10:45:53;;;;;;;1999.90;999.90;;;;;;;31.55;73.02;95495.19;5035099;28;20274;-66
2022/07/23 10:48:26;;;;;;;1999.90;999.90;;;;;;;31.45;74.43;95496.13;5035343;28;20193;-68